sensor_id;sensor_type;location;lat;lon;timestamp;temperature;humidity
32534;DHT22;18973;48.580;8.912;2022-12-18T00:01:36;-9.10;99.90
32534;DHT22;18973;48.580;8.912;2022-12-18T00:04:07;-9.10;99.90
32534;DHT22;18973;48.580;8.912;2022-12-18T00:06:34;-9.10;99.90
32534;DHT22;18973;48.580;8.912;2022-12-18T00:09:01;-9.10;99.90
32534;DHT22;18973;48.580;8.912;2022-12-18T00:11:29;-9.10;99.90
32534;DHT22;18973;48.580;8.912;2022-12-18T00:13:57;-9.20;99.90
32534;DHT22;18973;48.580;8.912;2022-12-18T00:16:24;-9.20;99.90
32534;DHT22;18973;48.580;8.912;2022-12-18T00:18:52;-9.20;99.90
32534;DHT22;18973;48.580;8.912;2022-12-18T00:21:19;-9.30;99.90
32534;DHT22;18973;48.580;8.912;2022-12-18T00:23:46;-9.40;99.90
32534;DHT22;18973;48.580;8.912;2022-12-18T00:26:15;-9.40;99.90
32534;DHT22;18973;48.580;8.912;2022-12-18T00:28:42;-9.40;99.90
32534;DHT22;18973;48.580;8.912;2022-12-18T00:31:11;-9.60;99.90
32534;DHT22;18973;48.580;8.912;2022-12-18T00:33:37;-10.00;99.90
32534;DHT22;18973;48.580;8.912;2022-12-18T00:36:11;-10.10;99.90
32534;DHT22;18973;48.580;8.912;2022-12-18T00:38:38;-10.00;99.90
32534;DHT22;18973;48.580;8.912;2022-12-18T00:41:06;-10.00;99.90
32534;DHT22;18973;48.580;8.912;2022-12-18T00:43:31;-10.00;99.90
32534;DHT22;18973;48.580;8.912;2022-12-18T00:45:57;-10.30;99.90
32534;DHT22;18973;48.580;8.912;2022-12-18T00:48:23;-10.20;99.90
32534;DHT22;18973;48.580;8.912;2022-12-18T00:50:49;-10.00;99.90
32534;DHT22;18973;48.580;8.912;2022-12-18T00:53:15;-9.90;99.90
32534;DHT22;18973;48.580;8.912;2022-12-18T00:55:41;-9.80;99.90
32534;DHT22;18973;48.580;8.912;2022-12-18T00:58:09;-9.70;99.90
32534;DHT22;18973;48.580;8.912;2022-12-18T01:00:35;-9.70;99.90
32534;DHT22;18973;48.580;8.912;2022-12-18T01:03:01;-9.60;99.90
32534;DHT22;18973;48.580;8.912;2022-12-18T01:05:27;-9.50;99.90
32534;DHT22;18973;48.580;8.912;2022-12-18T01:07:53;-9.40;99.90
32534;DHT22;18973;48.580;8.912;2022-12-18T01:10:20;-9.50;99.90
32534;DHT22;18973;48.580;8.912;2022-12-18T01:12:46;-9.50;99.90
32534;DHT22;18973;48.580;8.912;2022-12-18T01:15:12;-9.50;99.90
32534;DHT22;18973;48.580;8.912;2022-12-18T01:17:38;-9.30;99.90
32534;DHT22;18973;48.580;8.912;2022-12-18T01:20:05;-9.30;99.90
32534;DHT22;18973;48.580;8.912;2022-12-18T01:22:31;-9.30;99.90
32534;DHT22;18973;48.580;8.912;2022-12-18T01:24:57;-9.40;99.90
32534;DHT22;18973;48.580;8.912;2022-12-18T01:27:22;-9.40;99.90
32534;DHT22;18973;48.580;8.912;2022-12-18T01:29:49;-9.40;99.90
32534;DHT22;18973;48.580;8.912;2022-12-18T01:32:15;-9.40;99.90
32534;DHT22;18973;48.580;8.912;2022-12-18T01:34:40;-9.40;99.90
32534;DHT22;18973;48.580;8.912;2022-12-18T01:37:06;-9.40;99.90
32534;DHT22;18973;48.580;8.912;2022-12-18T01:39:33;-9.40;99.90
32534;DHT22;18973;48.580;8.912;2022-12-18T01:41:59;-9.40;99.90
32534;DHT22;18973;48.580;8.912;2022-12-18T01:47:23;-9.40;99.90
32534;DHT22;18973;48.580;8.912;2022-12-18T01:49:50;-9.40;99.90
32534;DHT22;18973;48.580;8.912;2022-12-18T01:52:17;-9.40;99.90
32534;DHT22;18973;48.580;8.912;2022-12-18T01:54:44;-9.40;99.90
32534;DHT22;18973;48.580;8.912;2022-12-18T01:57:10;-9.30;99.90
32534;DHT22;18973;48.580;8.912;2022-12-18T01:59:36;-9.30;99.90
32534;DHT22;18973;48.580;8.912;2022-12-18T02:02:03;-9.40;99.90
32534;DHT22;18973;48.580;8.912;2022-12-18T02:04:29;-9.30;99.90
32534;DHT22;18973;48.580;8.912;2022-12-18T02:09:46;-9.40;99.90
32534;DHT22;18973;48.580;8.912;2022-12-18T02:12:18;-9.30;99.90
32534;DHT22;18973;48.580;8.912;2022-12-18T02:18:12;-9.30;99.90
32534;DHT22;18973;48.580;8.912;2022-12-18T02:23:42;-9.40;99.90
32534;DHT22;18973;48.580;8.912;2022-12-18T02:31:19;-9.20;99.90
32534;DHT22;18973;48.580;8.912;2022-12-18T02:33:47;-9.10;99.90
32534;DHT22;18973;48.580;8.912;2022-12-18T02:36:16;-9.00;99.90
32534;DHT22;18973;48.580;8.912;2022-12-18T02:38:43;-8.90;99.90
32534;DHT22;18973;48.580;8.912;2022-12-18T02:41:10;-8.90;99.90
32534;DHT22;18973;48.580;8.912;2022-12-18T02:43:36;-8.90;99.90
32534;DHT22;18973;48.580;8.912;2022-12-18T02:48:52;-8.70;99.90
32534;DHT22;18973;48.580;8.912;2022-12-18T02:51:30;-8.60;99.90
32534;DHT22;18973;48.580;8.912;2022-12-18T02:54:09;-8.70;99.90
32534;DHT22;18973;48.580;8.912;2022-12-18T02:56:39;-8.80;99.90
32534;DHT22;18973;48.580;8.912;2022-12-18T02:59:13;-8.80;99.90
32534;DHT22;18973;48.580;8.912;2022-12-18T03:06:51;-8.60;99.90
32534;DHT22;18973;48.580;8.912;2022-12-18T03:09:22;-8.60;99.90
32534;DHT22;18973;48.580;8.912;2022-12-18T03:11:54;-8.90;99.90
32534;DHT22;18973;48.580;8.912;2022-12-18T03:14:42;-8.80;99.90
32534;DHT22;18973;48.580;8.912;2022-12-18T03:17:11;-8.70;99.90
32534;DHT22;18973;48.580;8.912;2022-12-18T03:19:40;-8.70;99.90
32534;DHT22;18973;48.580;8.912;2022-12-18T03:22:07;-8.70;99.90
32534;DHT22;18973;48.580;8.912;2022-12-18T03:24:33;-8.60;99.90
32534;DHT22;18973;48.580;8.912;2022-12-18T03:27:06;-8.60;99.90
32534;DHT22;18973;48.580;8.912;2022-12-18T03:29:42;-8.40;99.90
32534;DHT22;18973;48.580;8.912;2022-12-18T03:32:11;-8.40;99.90
32534;DHT22;18973;48.580;8.912;2022-12-18T03:34:40;-8.40;99.90
32534;DHT22;18973;48.580;8.912;2022-12-18T03:37:07;-8.50;99.90
32534;DHT22;18973;48.580;8.912;2022-12-18T03:39:34;-8.60;99.90
32534;DHT22;18973;48.580;8.912;2022-12-18T03:42:23;-8.40;99.90
32534;DHT22;18973;48.580;8.912;2022-12-18T03:45:02;-8.50;99.90
32534;DHT22;18973;48.580;8.912;2022-12-18T03:51:17;-8.60;99.90
32534;DHT22;18973;48.580;8.912;2022-12-18T03:56:01;-8.60;99.90
32534;DHT22;18973;48.580;8.912;2022-12-18T03:58:27;-8.50;99.90
32534;DHT22;18973;48.580;8.912;2022-12-18T04:00:56;-8.60;99.90
32534;DHT22;18973;48.580;8.912;2022-12-18T04:03:26;-8.50;99.90
32534;DHT22;18973;48.580;8.912;2022-12-18T04:05:54;-8.50;99.90
32534;DHT22;18973;48.580;8.912;2022-12-18T04:08:21;-8.30;99.90
32534;DHT22;18973;48.580;8.912;2022-12-18T04:10:47;-8.30;99.90
32534;DHT22;18973;48.580;8.912;2022-12-18T04:13:25;-8.30;99.90
32534;DHT22;18973;48.580;8.912;2022-12-18T04:15:52;-8.20;99.90
32534;DHT22;18973;48.580;8.912;2022-12-18T04:18:18;-8.00;99.90
32534;DHT22;18973;48.580;8.912;2022-12-18T04:20:44;-7.90;99.90
32534;DHT22;18973;48.580;8.912;2022-12-18T04:23:10;-8.00;99.90
32534;DHT22;18973;48.580;8.912;2022-12-18T04:25:36;-8.10;99.90
32534;DHT22;18973;48.580;8.912;2022-12-18T04:28:02;-8.00;99.90
32534;DHT22;18973;48.580;8.912;2022-12-18T04:30:30;-7.80;99.90
32534;DHT22;18973;48.580;8.912;2022-12-18T04:32:56;-7.90;99.90
32534;DHT22;18973;48.580;8.912;2022-12-18T04:35:22;-8.00;99.90
32534;DHT22;18973;48.580;8.912;2022-12-18T04:37:47;-7.80;99.90
32534;DHT22;18973;48.580;8.912;2022-12-18T04:40:13;-7.70;99.90
32534;DHT22;18973;48.580;8.912;2022-12-18T04:42:39;-7.60;99.90
32534;DHT22;18973;48.580;8.912;2022-12-18T04:45:06;-7.50;99.90
32534;DHT22;18973;48.580;8.912;2022-12-18T04:47:32;-7.50;99.90
32534;DHT22;18973;48.580;8.912;2022-12-18T04:49:58;-7.40;99.90
32534;DHT22;18973;48.580;8.912;2022-12-18T04:52:23;-7.30;99.90
32534;DHT22;18973;48.580;8.912;2022-12-18T04:54:49;-7.20;99.90
32534;DHT22;18973;48.580;8.912;2022-12-18T04:57:15;-7.20;99.90
32534;DHT22;18973;48.580;8.912;2022-12-18T04:59:40;-7.10;99.90
32534;DHT22;18973;48.580;8.912;2022-12-18T05:02:06;-7.10;99.90
32534;DHT22;18973;48.580;8.912;2022-12-18T05:04:32;-7.10;99.90
32534;DHT22;18973;48.580;8.912;2022-12-18T05:06:57;-7.10;99.90
32534;DHT22;18973;48.580;8.912;2022-12-18T05:09:23;-7.20;99.90
32534;DHT22;18973;48.580;8.912;2022-12-18T05:11:49;-7.20;99.90
32534;DHT22;18973;48.580;8.912;2022-12-18T05:14:15;-7.40;99.90
32534;DHT22;18973;48.580;8.912;2022-12-18T05:16:40;-7.50;99.90
32534;DHT22;18973;48.580;8.912;2022-12-18T05:19:06;-7.50;99.90
32534;DHT22;18973;48.580;8.912;2022-12-18T05:21:32;-7.40;99.90
32534;DHT22;18973;48.580;8.912;2022-12-18T05:23:58;-7.40;99.90
32534;DHT22;18973;48.580;8.912;2022-12-18T05:26:23;-7.40;99.90
32534;DHT22;18973;48.580;8.912;2022-12-18T05:28:49;-7.40;99.90
32534;DHT22;18973;48.580;8.912;2022-12-18T05:31:15;-7.40;99.90
32534;DHT22;18973;48.580;8.912;2022-12-18T05:33:40;-7.40;99.90
32534;DHT22;18973;48.580;8.912;2022-12-18T05:36:07;-7.40;99.90
32534;DHT22;18973;48.580;8.912;2022-12-18T05:38:35;-7.40;99.90
32534;DHT22;18973;48.580;8.912;2022-12-18T05:41:02;-7.50;99.90
32534;DHT22;18973;48.580;8.912;2022-12-18T05:43:28;-7.60;99.90
32534;DHT22;18973;48.580;8.912;2022-12-18T05:45:54;-7.60;99.90
32534;DHT22;18973;48.580;8.912;2022-12-18T05:48:21;-7.60;99.90
32534;DHT22;18973;48.580;8.912;2022-12-18T05:50:48;-7.50;99.90
32534;DHT22;18973;48.580;8.912;2022-12-18T05:53:15;-7.50;99.90
32534;DHT22;18973;48.580;8.912;2022-12-18T05:55:42;-7.50;99.90
32534;DHT22;18973;48.580;8.912;2022-12-18T05:58:10;-7.50;99.90
32534;DHT22;18973;48.580;8.912;2022-12-18T06:00:40;-7.50;99.90
32534;DHT22;18973;48.580;8.912;2022-12-18T06:03:10;-7.50;99.90
32534;DHT22;18973;48.580;8.912;2022-12-18T06:05:37;-7.60;99.90
32534;DHT22;18973;48.580;8.912;2022-12-18T06:08:03;-7.70;99.90
32534;DHT22;18973;48.580;8.912;2022-12-18T06:10:29;-7.70;99.90
32534;DHT22;18973;48.580;8.912;2022-12-18T06:12:54;-7.70;99.90
32534;DHT22;18973;48.580;8.912;2022-12-18T06:15:20;-7.70;99.90
32534;DHT22;18973;48.580;8.912;2022-12-18T06:17:46;-7.80;99.90
32534;DHT22;18973;48.580;8.912;2022-12-18T06:20:11;-7.70;99.90
32534;DHT22;18973;48.580;8.912;2022-12-18T06:22:37;-8.00;99.90
32534;DHT22;18973;48.580;8.912;2022-12-18T06:25:03;-8.10;99.90
32534;DHT22;18973;48.580;8.912;2022-12-18T06:27:29;-8.10;99.90
32534;DHT22;18973;48.580;8.912;2022-12-18T06:29:54;-8.20;99.90
32534;DHT22;18973;48.580;8.912;2022-12-18T06:32:20;-8.10;99.90
32534;DHT22;18973;48.580;8.912;2022-12-18T06:34:46;-8.20;99.90
32534;DHT22;18973;48.580;8.912;2022-12-18T06:37:12;-8.20;99.90
32534;DHT22;18973;48.580;8.912;2022-12-18T06:39:37;-8.10;99.90
32534;DHT22;18973;48.580;8.912;2022-12-18T06:42:03;-8.10;99.90
32534;DHT22;18973;48.580;8.912;2022-12-18T06:44:29;-8.20;99.90
32534;DHT22;18973;48.580;8.912;2022-12-18T06:46:55;-8.10;99.90
32534;DHT22;18973;48.580;8.912;2022-12-18T06:49:20;-8.20;99.90
32534;DHT22;18973;48.580;8.912;2022-12-18T06:51:47;-8.40;99.90
32534;DHT22;18973;48.580;8.912;2022-12-18T06:54:12;-8.80;99.90
32534;DHT22;18973;48.580;8.912;2022-12-18T06:56:38;-9.00;99.90
32534;DHT22;18973;48.580;8.912;2022-12-18T06:59:04;-9.00;99.90
32534;DHT22;18973;48.580;8.912;2022-12-18T07:01:29;-9.00;99.90
32534;DHT22;18973;48.580;8.912;2022-12-18T07:03:56;-8.90;99.90
32534;DHT22;18973;48.580;8.912;2022-12-18T07:06:25;-8.90;99.90
32534;DHT22;18973;48.580;8.912;2022-12-18T07:08:52;-8.80;99.90
32534;DHT22;18973;48.580;8.912;2022-12-18T07:11:18;-8.60;99.90
32534;DHT22;18973;48.580;8.912;2022-12-18T07:13:45;-8.60;99.90
32534;DHT22;18973;48.580;8.912;2022-12-18T07:16:13;-8.50;99.90
32534;DHT22;18973;48.580;8.912;2022-12-18T07:18:39;-8.40;99.90
32534;DHT22;18973;48.580;8.912;2022-12-18T07:21:07;-8.40;99.90
32534;DHT22;18973;48.580;8.912;2022-12-18T07:23:34;-8.40;99.90
32534;DHT22;18973;48.580;8.912;2022-12-18T07:26:04;-8.50;99.90
32534;DHT22;18973;48.580;8.912;2022-12-18T07:28:31;-8.50;99.90
32534;DHT22;18973;48.580;8.912;2022-12-18T07:30:57;-8.50;99.90
32534;DHT22;18973;48.580;8.912;2022-12-18T07:33:24;-8.40;99.90
32534;DHT22;18973;48.580;8.912;2022-12-18T07:35:50;-8.60;99.90
32534;DHT22;18973;48.580;8.912;2022-12-18T07:38:16;-8.60;99.90
32534;DHT22;18973;48.580;8.912;2022-12-18T07:40:41;-8.60;99.90
32534;DHT22;18973;48.580;8.912;2022-12-18T07:43:07;-8.60;99.90
32534;DHT22;18973;48.580;8.912;2022-12-18T07:45:32;-8.50;99.90
32534;DHT22;18973;48.580;8.912;2022-12-18T07:47:58;-8.50;99.90
32534;DHT22;18973;48.580;8.912;2022-12-18T07:50:24;-8.50;99.90
32534;DHT22;18973;48.580;8.912;2022-12-18T07:52:49;-8.50;99.90
32534;DHT22;18973;48.580;8.912;2022-12-18T07:55:15;-8.50;99.90
32534;DHT22;18973;48.580;8.912;2022-12-18T07:57:41;-8.50;99.90
32534;DHT22;18973;48.580;8.912;2022-12-18T08:00:07;-8.50;99.90
32534;DHT22;18973;48.580;8.912;2022-12-18T08:02:33;-8.40;99.90
32534;DHT22;18973;48.580;8.912;2022-12-18T08:04:59;-8.50;99.90
32534;DHT22;18973;48.580;8.912;2022-12-18T08:07:24;-8.50;99.90
32534;DHT22;18973;48.580;8.912;2022-12-18T08:09:50;-8.50;99.90
32534;DHT22;18973;48.580;8.912;2022-12-18T08:12:16;-8.40;99.90
32534;DHT22;18973;48.580;8.912;2022-12-18T08:14:41;-8.50;99.90
32534;DHT22;18973;48.580;8.912;2022-12-18T08:17:07;-8.50;99.90
32534;DHT22;18973;48.580;8.912;2022-12-18T08:19:33;-8.40;99.90
32534;DHT22;18973;48.580;8.912;2022-12-18T08:21:58;-8.30;99.90
32534;DHT22;18973;48.580;8.912;2022-12-18T08:24:24;-8.20;99.90
32534;DHT22;18973;48.580;8.912;2022-12-18T08:26:51;-8.10;99.90
32534;DHT22;18973;48.580;8.912;2022-12-18T08:29:16;-8.10;99.90
32534;DHT22;18973;48.580;8.912;2022-12-18T08:31:42;-8.00;99.90
32534;DHT22;18973;48.580;8.912;2022-12-18T08:34:08;-7.90;99.90
32534;DHT22;18973;48.580;8.912;2022-12-18T08:36:34;-7.80;99.90
32534;DHT22;18973;48.580;8.912;2022-12-18T08:39:00;-7.60;99.90
32534;DHT22;18973;48.580;8.912;2022-12-18T08:41:25;-7.40;99.90
32534;DHT22;18973;48.580;8.912;2022-12-18T08:43:51;-7.20;99.90
32534;DHT22;18973;48.580;8.912;2022-12-18T08:46:38;-7.10;99.90
32534;DHT22;18973;48.580;8.912;2022-12-18T08:49:05;-6.90;99.90
32534;DHT22;18973;48.580;8.912;2022-12-18T08:51:31;-6.80;99.90
32534;DHT22;18973;48.580;8.912;2022-12-18T08:53:57;-6.60;99.90
32534;DHT22;18973;48.580;8.912;2022-12-18T08:56:23;-6.30;99.90
32534;DHT22;18973;48.580;8.912;2022-12-18T08:58:52;-5.90;99.90
32534;DHT22;18973;48.580;8.912;2022-12-18T09:01:17;-5.60;99.90
32534;DHT22;18973;48.580;8.912;2022-12-18T09:03:43;-5.30;99.90
32534;DHT22;18973;48.580;8.912;2022-12-18T09:06:09;-4.80;99.90
32534;DHT22;18973;48.580;8.912;2022-12-18T09:08:38;-4.20;99.30
32534;DHT22;18973;48.580;8.912;2022-12-18T09:11:04;-3.70;97.90
32534;DHT22;18973;48.580;8.912;2022-12-18T09:13:30;-3.30;95.90
32534;DHT22;18973;48.580;8.912;2022-12-18T09:15:56;-2.80;94.50
32534;DHT22;18973;48.580;8.912;2022-12-18T09:18:22;-2.50;93.20
32534;DHT22;18973;48.580;8.912;2022-12-18T09:20:48;-2.40;92.70
32534;DHT22;18973;48.580;8.912;2022-12-18T09:23:15;-2.10;92.20
32534;DHT22;18973;48.580;8.912;2022-12-18T09:25:41;-2.00;91.80
32534;DHT22;18973;48.580;8.912;2022-12-18T09:28:12;-1.90;91.60
32534;DHT22;18973;48.580;8.912;2022-12-18T09:30:41;-1.80;90.90
32534;DHT22;18973;48.580;8.912;2022-12-18T09:33:07;-1.80;90.40
32534;DHT22;18973;48.580;8.912;2022-12-18T09:35:35;-1.60;90.30
32534;DHT22;18973;48.580;8.912;2022-12-18T09:38:01;-1.60;90.20
32534;DHT22;18973;48.580;8.912;2022-12-18T09:40:31;-1.40;89.30
32534;DHT22;18973;48.580;8.912;2022-12-18T09:43:01;-1.40;88.60
32534;DHT22;18973;48.580;8.912;2022-12-18T09:45:32;-1.50;89.30
32534;DHT22;18973;48.580;8.912;2022-12-18T09:48:00;-1.40;90.10
32534;DHT22;18973;48.580;8.912;2022-12-18T09:50:37;-1.50;90.40
32534;DHT22;18973;48.580;8.912;2022-12-18T09:53:14;-1.50;90.30
32534;DHT22;18973;48.580;8.912;2022-12-18T09:55:45;-1.50;90.10
32534;DHT22;18973;48.580;8.912;2022-12-18T10:00:52;-1.30;89.40
32534;DHT22;18973;48.580;8.912;2022-12-18T10:03:18;-1.40;90.20
32534;DHT22;18973;48.580;8.912;2022-12-18T10:06:02;-1.30;89.80
32534;DHT22;18973;48.580;8.912;2022-12-18T10:13:52;-1.20;90.50
32534;DHT22;18973;48.580;8.912;2022-12-18T10:25:29;-1.70;90.20
32534;DHT22;18973;48.580;8.912;2022-12-18T10:28:00;-1.60;90.80
32534;DHT22;18973;48.580;8.912;2022-12-18T10:30:30;-1.60;91.60
32534;DHT22;18973;48.580;8.912;2022-12-18T10:33:01;-1.50;92.60
32534;DHT22;18973;48.580;8.912;2022-12-18T10:35:27;-1.60;93.30
32534;DHT22;18973;48.580;8.912;2022-12-18T10:40:50;-1.40;92.20
32534;DHT22;18973;48.580;8.912;2022-12-18T10:43:20;-1.70;92.10
32534;DHT22;18973;48.580;8.912;2022-12-18T10:48:51;-1.80;92.70
32534;DHT22;18973;48.580;8.912;2022-12-18T10:51:21;-1.90;93.00
32534;DHT22;18973;48.580;8.912;2022-12-18T10:53:57;-1.90;93.40
32534;DHT22;18973;48.580;8.912;2022-12-18T10:56:26;-1.90;93.80
32534;DHT22;18973;48.580;8.912;2022-12-18T10:59:07;-1.80;94.40
32534;DHT22;18973;48.580;8.912;2022-12-18T11:01:53;-1.60;95.00
32534;DHT22;18973;48.580;8.912;2022-12-18T11:09:29;-1.10;96.20
32534;DHT22;18973;48.580;8.912;2022-12-18T11:12:00;-1.00;97.80
32534;DHT22;18973;48.580;8.912;2022-12-18T11:14:34;-0.90;97.40
32534;DHT22;18973;48.580;8.912;2022-12-18T11:17:35;-0.90;96.80
32534;DHT22;18973;48.580;8.912;2022-12-18T11:20:07;-0.90;97.40
32534;DHT22;18973;48.580;8.912;2022-12-18T11:22:58;-0.70;97.40
32534;DHT22;18973;48.580;8.912;2022-12-18T11:25:24;-0.60;95.90
32534;DHT22;18973;48.580;8.912;2022-12-18T11:28:02;-0.50;96.30
32534;DHT22;18973;48.580;8.912;2022-12-18T11:30:31;-0.40;96.00
32534;DHT22;18973;48.580;8.912;2022-12-18T11:33:10;-0.50;95.90
32534;DHT22;18973;48.580;8.912;2022-12-18T11:38:18;-0.60;97.10
32534;DHT22;18973;48.580;8.912;2022-12-18T11:40:51;-0.50;97.50
32534;DHT22;18973;48.580;8.912;2022-12-18T11:43:47;-0.50;96.70
32534;DHT22;18973;48.580;8.912;2022-12-18T11:46:23;-0.40;96.50
32534;DHT22;18973;48.580;8.912;2022-12-18T11:48:49;-0.30;96.80
32534;DHT22;18973;48.580;8.912;2022-12-18T11:51:30;-0.30;97.30
32534;DHT22;18973;48.580;8.912;2022-12-18T11:54:00;-0.20;96.90
32534;DHT22;18973;48.580;8.912;2022-12-18T11:56:36;-0.20;97.70
32534;DHT22;18973;48.580;8.912;2022-12-18T12:07:47;0.80;99.90
32534;DHT22;18973;48.580;8.912;2022-12-18T12:19:07;3.60;87.20
32534;DHT22;18973;48.580;8.912;2022-12-18T12:21:41;2.70;90.70
32534;DHT22;18973;48.580;8.912;2022-12-18T12:29:32;1.20;95.10
32534;DHT22;18973;48.580;8.912;2022-12-18T12:32:33;1.00;96.20
32534;DHT22;18973;48.580;8.912;2022-12-18T12:40:33;0.30;97.90
32534;DHT22;18973;48.580;8.912;2022-12-18T12:43:07;0.20;98.70
32534;DHT22;18973;48.580;8.912;2022-12-18T12:46:04;0.10;99.00
32534;DHT22;18973;48.580;8.912;2022-12-18T12:49:36;0.00;99.90
32534;DHT22;18973;48.580;8.912;2022-12-18T12:51:40;-0.10;99.90
32534;DHT22;18973;48.580;8.912;2022-12-18T12:54:17;-0.20;99.90
32534;DHT22;18973;48.580;8.912;2022-12-18T12:57:16;-0.30;99.90
32534;DHT22;18973;48.580;8.912;2022-12-18T13:05:25;-0.30;99.90
32534;DHT22;18973;48.580;8.912;2022-12-18T13:10:30;-0.20;99.90
32534;DHT22;18973;48.580;8.912;2022-12-18T13:13:03;-0.30;99.90
32534;DHT22;18973;48.580;8.912;2022-12-18T13:15:31;-0.30;99.90
32534;DHT22;18973;48.580;8.912;2022-12-18T13:20:36;-0.60;99.90
32534;DHT22;18973;48.580;8.912;2022-12-18T13:25:52;-0.80;99.90
32534;DHT22;18973;48.580;8.912;2022-12-18T13:30:51;-1.20;99.90
32534;DHT22;18973;48.580;8.912;2022-12-18T13:40:58;-1.20;99.90
32534;DHT22;18973;48.580;8.912;2022-12-18T13:43:43;-1.10;99.90
32534;DHT22;18973;48.580;8.912;2022-12-18T13:51:41;-1.30;99.90
32534;DHT22;18973;48.580;8.912;2022-12-18T13:56:47;-1.30;99.90
32534;DHT22;18973;48.580;8.912;2022-12-18T14:01:59;-1.50;99.90
32534;DHT22;18973;48.580;8.912;2022-12-18T14:04:27;-1.50;99.90
32534;DHT22;18973;48.580;8.912;2022-12-18T14:07:05;-1.40;99.90
32534;DHT22;18973;48.580;8.912;2022-12-18T14:09:36;-1.50;99.90
32534;DHT22;18973;48.580;8.912;2022-12-18T14:12:02;-1.50;99.90
32534;DHT22;18973;48.580;8.912;2022-12-18T14:14:47;-1.50;99.90
32534;DHT22;18973;48.580;8.912;2022-12-18T14:17:14;-1.60;99.90
32534;DHT22;18973;48.580;8.912;2022-12-18T14:19:42;-1.50;99.90
32534;DHT22;18973;48.580;8.912;2022-12-18T14:22:23;-1.60;99.90
32534;DHT22;18973;48.580;8.912;2022-12-18T14:25:21;-1.60;99.90
32534;DHT22;18973;48.580;8.912;2022-12-18T14:27:51;-1.70;99.90
32534;DHT22;18973;48.580;8.912;2022-12-18T14:35:52;-0.10;99.90
32534;DHT22;18973;48.580;8.912;2022-12-18T14:38:35;-0.50;99.90
32534;DHT22;18973;48.580;8.912;2022-12-18T14:41:08;-1.00;99.90
32534;DHT22;18973;48.580;8.912;2022-12-18T14:43:37;-1.20;99.90
32534;DHT22;18973;48.580;8.912;2022-12-18T14:46:05;-1.40;99.90
32534;DHT22;18973;48.580;8.912;2022-12-18T14:48:41;-1.50;99.90
32534;DHT22;18973;48.580;8.912;2022-12-18T14:53:39;-1.70;99.90
32534;DHT22;18973;48.580;8.912;2022-12-18T14:56:35;-1.70;99.90
32534;DHT22;18973;48.580;8.912;2022-12-18T14:59:22;-1.80;99.90
32534;DHT22;18973;48.580;8.912;2022-12-18T15:04:44;-2.00;99.90
32534;DHT22;18973;48.580;8.912;2022-12-18T15:07:22;-2.10;99.90
32534;DHT22;18973;48.580;8.912;2022-12-18T15:12:39;-2.10;99.90
32534;DHT22;18973;48.580;8.912;2022-12-18T15:23:16;-2.20;99.90
32534;DHT22;18973;48.580;8.912;2022-12-18T15:25:42;-2.20;99.90
32534;DHT22;18973;48.580;8.912;2022-12-18T15:28:26;-2.20;99.90
32534;DHT22;18973;48.580;8.912;2022-12-18T15:33:26;-2.20;99.90
32534;DHT22;18973;48.580;8.912;2022-12-18T15:36:00;-2.30;99.90
32534;DHT22;18973;48.580;8.912;2022-12-18T15:38:26;-2.30;99.90
32534;DHT22;18973;48.580;8.912;2022-12-18T15:40:53;-2.40;99.90
32534;DHT22;18973;48.580;8.912;2022-12-18T15:43:21;-2.40;99.90
32534;DHT22;18973;48.580;8.912;2022-12-18T15:46:05;-2.40;99.90
32534;DHT22;18973;48.580;8.912;2022-12-18T15:48:34;-2.40;99.90
32534;DHT22;18973;48.580;8.912;2022-12-18T15:51:00;-2.50;99.90
32534;DHT22;18973;48.580;8.912;2022-12-18T15:53:31;-2.50;99.90
32534;DHT22;18973;48.580;8.912;2022-12-18T15:55:58;-2.70;99.90
32534;DHT22;18973;48.580;8.912;2022-12-18T15:58:42;-2.80;99.90
32534;DHT22;18973;48.580;8.912;2022-12-18T16:01:09;-2.80;99.90
32534;DHT22;18973;48.580;8.912;2022-12-18T16:03:36;-2.80;99.90
32534;DHT22;18973;48.580;8.912;2022-12-18T16:06:01;-2.80;99.90
32534;DHT22;18973;48.580;8.912;2022-12-18T16:08:31;-2.70;99.90
32534;DHT22;18973;48.580;8.912;2022-12-18T16:10:57;-2.70;99.90
32534;DHT22;18973;48.580;8.912;2022-12-18T16:13:23;-2.80;99.90
32534;DHT22;18973;48.580;8.912;2022-12-18T16:15:49;-2.70;99.90
32534;DHT22;18973;48.580;8.912;2022-12-18T16:18:15;-2.80;99.90
32534;DHT22;18973;48.580;8.912;2022-12-18T16:20:41;-2.80;99.90
32534;DHT22;18973;48.580;8.912;2022-12-18T16:23:06;-2.80;99.90
32534;DHT22;18973;48.580;8.912;2022-12-18T16:25:32;-2.80;99.90
32534;DHT22;18973;48.580;8.912;2022-12-18T16:27:58;-2.70;99.90
32534;DHT22;18973;48.580;8.912;2022-12-18T16:30:27;-2.70;99.90
32534;DHT22;18973;48.580;8.912;2022-12-18T16:32:54;-2.70;99.90
32534;DHT22;18973;48.580;8.912;2022-12-18T16:35:20;-2.70;99.90
32534;DHT22;18973;48.580;8.912;2022-12-18T16:37:46;-2.70;99.90
32534;DHT22;18973;48.580;8.912;2022-12-18T16:40:14;-2.80;99.90
32534;DHT22;18973;48.580;8.912;2022-12-18T16:42:41;-2.80;99.90
32534;DHT22;18973;48.580;8.912;2022-12-18T16:45:15;-2.70;99.90
32534;DHT22;18973;48.580;8.912;2022-12-18T16:47:41;-2.70;99.90
32534;DHT22;18973;48.580;8.912;2022-12-18T16:50:09;-2.70;99.90
32534;DHT22;18973;48.580;8.912;2022-12-18T16:52:35;-2.70;99.90
32534;DHT22;18973;48.580;8.912;2022-12-18T16:55:01;-2.70;99.90
32534;DHT22;18973;48.580;8.912;2022-12-18T16:57:26;-2.60;99.90
32534;DHT22;18973;48.580;8.912;2022-12-18T16:59:52;-2.60;99.90
32534;DHT22;18973;48.580;8.912;2022-12-18T17:02:23;-2.60;99.90
32534;DHT22;18973;48.580;8.912;2022-12-18T17:04:51;-2.50;99.90
32534;DHT22;18973;48.580;8.912;2022-12-18T17:07:17;-2.50;99.90
32534;DHT22;18973;48.580;8.912;2022-12-18T17:09:43;-2.50;99.90
32534;DHT22;18973;48.580;8.912;2022-12-18T17:12:09;-2.50;99.90
32534;DHT22;18973;48.580;8.912;2022-12-18T17:14:35;-2.50;99.90
32534;DHT22;18973;48.580;8.912;2022-12-18T17:17:01;-2.40;99.90
32534;DHT22;18973;48.580;8.912;2022-12-18T17:19:28;-2.40;99.90
32534;DHT22;18973;48.580;8.912;2022-12-18T17:21:54;-2.40;99.90
32534;DHT22;18973;48.580;8.912;2022-12-18T17:24:20;-2.60;99.90
32534;DHT22;18973;48.580;8.912;2022-12-18T17:26:47;-2.60;99.90
32534;DHT22;18973;48.580;8.912;2022-12-18T17:29:15;-2.50;99.90
32534;DHT22;18973;48.580;8.912;2022-12-18T17:31:41;-2.50;99.90
32534;DHT22;18973;48.580;8.912;2022-12-18T17:34:08;-2.40;99.90
32534;DHT22;18973;48.580;8.912;2022-12-18T17:36:34;-2.40;99.90
32534;DHT22;18973;48.580;8.912;2022-12-18T17:39:01;-2.30;99.90
32534;DHT22;18973;48.580;8.912;2022-12-18T17:41:28;-2.20;99.90
32534;DHT22;18973;48.580;8.912;2022-12-18T17:44:02;-2.20;99.90
32534;DHT22;18973;48.580;8.912;2022-12-18T17:46:30;-2.20;99.90
32534;DHT22;18973;48.580;8.912;2022-12-18T17:48:57;-2.20;99.90
32534;DHT22;18973;48.580;8.912;2022-12-18T17:51:23;-2.20;99.90
32534;DHT22;18973;48.580;8.912;2022-12-18T17:53:49;-2.20;99.90
32534;DHT22;18973;48.580;8.912;2022-12-18T17:56:17;-2.20;99.90
32534;DHT22;18973;48.580;8.912;2022-12-18T17:58:43;-2.20;99.90
32534;DHT22;18973;48.580;8.912;2022-12-18T18:01:13;-2.20;99.90
32534;DHT22;18973;48.580;8.912;2022-12-18T18:03:39;-2.30;99.90
32534;DHT22;18973;48.580;8.912;2022-12-18T18:06:05;-2.30;99.90
32534;DHT22;18973;48.580;8.912;2022-12-18T18:08:33;-2.60;99.90
32534;DHT22;18973;48.580;8.912;2022-12-18T18:11:03;-2.50;99.90